LELN/LEN METAR and TAF weather

Enter ICAO airport designator
Station Type Date Time Source
LELN METAR 2021/09/24 03:00 UTC NOAA

LELN 240300Z AUTO 05004KT 010V080 9999 -RA NSC 14/11 Q1018


Station Type Date Time Source
LELN Decoded METAR 2021/09/24 03:00 UTC NOAA

Leon / Virgen Del Camino, Spain (LELN) 42-35N 005-39W 914M
Sep 23, 2021 - 11:00 PM EDT / 2021.09.24 0300 UTC
Wind: from the NE (050 degrees) at 5 MPH (4 KT) (direction variable):0
Visibility: greater than 7 mile(s):0
Weather: light rain
Temperature: 57 F (14 C)
Dew Point: 51 F (11 C)
Relative Humidity: 82%
Pressure (altimeter): 30.06 in. Hg (1018 hPa)
ob: LELN 240300Z AUTO 05004KT 010V080 9999 -RA NSC 14/11 Q1018
cycle: 3

Station Type Date Time Source
LELN TAF 2021/09/24 03:27 UTC NOAA

TAF LELN 240200Z 2403/2503 VRB05KT 9999 SCT030 TX20/2415Z TN12/2407Z
TEMPO 2403/2422 RA SHRA SCT025TCU PROB40
TEMPO 2403/2420 3000 TSRA BKN007 SCT015CB PROB40
TEMPO 2410/2417 12010KT

Example: see airport list